sensor_id;sensor_type;location;lat;lon;timestamp;P1;durP1;ratioP1;P2;durP2;ratioP2
69026;SDS011;56080;47.594;19.116;2022-11-06T00:02:49;186.20;;;47.10;;
69026;SDS011;56080;47.594;19.116;2022-11-06T00:07:49;185.10;;;45.90;;
69026;SDS011;56080;47.594;19.116;2022-11-06T00:12:49;185.10;;;45.90;;
69026;SDS011;56080;47.594;19.116;2022-11-06T00:17:49;186.00;;;47.50;;
69026;SDS011;56080;47.594;19.116;2022-11-06T00:22:49;186.00;;;47.50;;
69026;SDS011;56080;47.594;19.116;2022-11-06T00:27:49;183.50;;;46.10;;
69026;SDS011;56080;47.594;19.116;2022-11-06T00:32:49;183.50;;;46.10;;
69026;SDS011;56080;47.594;19.116;2022-11-06T00:37:49;181.10;;;45.70;;
69026;SDS011;56080;47.594;19.116;2022-11-06T00:42:52;181.10;;;45.70;;
69026;SDS011;56080;47.594;19.116;2022-11-06T00:52:49;178.30;;;44.00;;
69026;SDS011;56080;47.594;19.116;2022-11-06T00:57:49;179.40;;;45.10;;
69026;SDS011;56080;47.594;19.116;2022-11-06T01:02:49;179.40;;;45.10;;
69026;SDS011;56080;47.594;19.116;2022-11-06T01:07:49;178.00;;;44.90;;
69026;SDS011;56080;47.594;19.116;2022-11-06T01:12:49;178.00;;;44.90;;
69026;SDS011;56080;47.594;19.116;2022-11-06T01:22:49;179.00;;;46.00;;
69026;SDS011;56080;47.594;19.116;2022-11-06T01:27:48;172.80;;;44.70;;
69026;SDS011;56080;47.594;19.116;2022-11-06T01:32:49;172.80;;;44.70;;
69026;SDS011;56080;47.594;19.116;2022-11-06T01:42:49;177.90;;;44.50;;
69026;SDS011;56080;47.594;19.116;2022-11-06T01:47:49;169.20;;;44.50;;
69026;SDS011;56080;47.594;19.116;2022-11-06T01:52:49;169.20;;;44.50;;
69026;SDS011;56080;47.594;19.116;2022-11-06T01:57:49;172.20;;;44.90;;
69026;SDS011;56080;47.594;19.116;2022-11-06T02:02:49;172.20;;;44.90;;
69026;SDS011;56080;47.594;19.116;2022-11-06T02:07:50;176.20;;;45.40;;
69026;SDS011;56080;47.594;19.116;2022-11-06T02:27:54;178.60;;;45.00;;
69026;SDS011;56080;47.594;19.116;2022-11-06T02:32:54;178.60;;;45.00;;
69026;SDS011;56080;47.594;19.116;2022-11-06T02:37:51;178.50;;;44.40;;
69026;SDS011;56080;47.594;19.116;2022-11-06T02:42:51;178.50;;;44.40;;
69026;SDS011;56080;47.594;19.116;2022-11-06T02:47:50;174.40;;;44.70;;
69026;SDS011;56080;47.594;19.116;2022-11-06T02:57:53;170.30;;;45.50;;
69026;SDS011;56080;47.594;19.116;2022-11-06T03:02:57;170.30;;;45.50;;
69026;SDS011;56080;47.594;19.116;2022-11-06T03:12:59;175.10;;;46.20;;
69026;SDS011;56080;47.594;19.116;2022-11-06T03:22:54;173.90;;;44.50;;
69026;SDS011;56080;47.594;19.116;2022-11-06T03:28:03;171.00;;;44.30;;
69026;SDS011;56080;47.594;19.116;2022-11-06T03:32:56;171.00;;;44.30;;
69026;SDS011;56080;47.594;19.116;2022-11-06T03:42:50;173.00;;;44.40;;
69026;SDS011;56080;47.594;19.116;2022-11-06T03:47:55;172.90;;;44.90;;
69026;SDS011;56080;47.594;19.116;2022-11-06T03:52:54;172.90;;;44.90;;
69026;SDS011;56080;47.594;19.116;2022-11-06T03:57:56;177.40;;;44.30;;
69026;SDS011;56080;47.594;19.116;2022-11-06T04:02:54;177.40;;;44.30;;
69026;SDS011;56080;47.594;19.116;2022-11-06T04:12:59;178.80;;;44.60;;
69026;SDS011;56080;47.594;19.116;2022-11-06T04:17:49;174.30;;;43.90;;
69026;SDS011;56080;47.594;19.116;2022-11-06T04:22:54;174.30;;;43.90;;
69026;SDS011;56080;47.594;19.116;2022-11-06T04:28:11;170.40;;;43.90;;
69026;SDS011;56080;47.594;19.116;2022-11-06T04:32:59;170.40;;;43.90;;
69026;SDS011;56080;47.594;19.116;2022-11-06T04:43:03;165.30;;;43.10;;
69026;SDS011;56080;47.594;19.116;2022-11-06T04:52:49;162.90;;;44.90;;
69026;SDS011;56080;47.594;19.116;2022-11-06T05:02:49;162.10;;;45.00;;
69026;SDS011;56080;47.594;19.116;2022-11-06T05:07:49;160.60;;;43.80;;
69026;SDS011;56080;47.594;19.116;2022-11-06T05:12:49;160.60;;;43.80;;
69026;SDS011;56080;47.594;19.116;2022-11-06T05:17:49;159.60;;;43.50;;
69026;SDS011;56080;47.594;19.116;2022-11-06T05:22:59;159.60;;;43.50;;
69026;SDS011;56080;47.594;19.116;2022-11-06T05:27:49;158.80;;;43.40;;
69026;SDS011;56080;47.594;19.116;2022-11-06T05:32:49;158.80;;;43.40;;
69026;SDS011;56080;47.594;19.116;2022-11-06T05:42:50;158.70;;;43.60;;
69026;SDS011;56080;47.594;19.116;2022-11-06T05:52:49;158.90;;;43.20;;
69026;SDS011;56080;47.594;19.116;2022-11-06T05:57:49;162.50;;;44.40;;
69026;SDS011;56080;47.594;19.116;2022-11-06T06:02:49;162.50;;;44.40;;
69026;SDS011;56080;47.594;19.116;2022-11-06T06:07:49;159.60;;;43.90;;
69026;SDS011;56080;47.594;19.116;2022-11-06T06:12:49;159.60;;;43.90;;
69026;SDS011;56080;47.594;19.116;2022-11-06T06:17:49;161.30;;;43.70;;
69026;SDS011;56080;47.594;19.116;2022-11-06T06:22:57;161.30;;;43.70;;
69026;SDS011;56080;47.594;19.116;2022-11-06T06:27:49;161.80;;;43.80;;
69026;SDS011;56080;47.594;19.116;2022-11-06T06:32:49;161.80;;;43.80;;
69026;SDS011;56080;47.594;19.116;2022-11-06T06:37:50;159.90;;;44.20;;
69026;SDS011;56080;47.594;19.116;2022-11-06T06:42:49;159.90;;;44.20;;
69026;SDS011;56080;47.594;19.116;2022-11-06T06:47:49;159.70;;;43.20;;
69026;SDS011;56080;47.594;19.116;2022-11-06T06:52:49;159.70;;;43.20;;
69026;SDS011;56080;47.594;19.116;2022-11-06T06:57:54;161.70;;;43.50;;
69026;SDS011;56080;47.594;19.116;2022-11-06T07:02:49;161.70;;;43.50;;
69026;SDS011;56080;47.594;19.116;2022-11-06T07:07:49;166.20;;;48.80;;
69026;SDS011;56080;47.594;19.116;2022-11-06T07:12:49;166.20;;;48.80;;
69026;SDS011;56080;47.594;19.116;2022-11-06T07:17:49;164.70;;;46.40;;
69026;SDS011;56080;47.594;19.116;2022-11-06T07:22:49;164.70;;;46.40;;
69026;SDS011;56080;47.594;19.116;2022-11-06T07:27:50;167.20;;;46.70;;
69026;SDS011;56080;47.594;19.116;2022-11-06T07:32:49;167.20;;;46.70;;
69026;SDS011;56080;47.594;19.116;2022-11-06T07:37:49;168.30;;;45.60;;
69026;SDS011;56080;47.594;19.116;2022-11-06T07:42:54;168.30;;;45.60;;
69026;SDS011;56080;47.594;19.116;2022-11-06T07:47:49;182.60;;;46.60;;
69026;SDS011;56080;47.594;19.116;2022-11-06T07:52:49;182.60;;;46.60;;
69026;SDS011;56080;47.594;19.116;2022-11-06T07:57:49;190.10;;;46.50;;
69026;SDS011;56080;47.594;19.116;2022-11-06T08:02:51;190.10;;;46.50;;
69026;SDS011;56080;47.594;19.116;2022-11-06T08:12:49;191.20;;;47.30;;
69026;SDS011;56080;47.594;19.116;2022-11-06T08:17:49;186.40;;;46.10;;
69026;SDS011;56080;47.594;19.116;2022-11-06T08:22:49;186.40;;;46.10;;
69026;SDS011;56080;47.594;19.116;2022-11-06T08:37:50;184.60;;;48.20;;
69026;SDS011;56080;47.594;19.116;2022-11-06T08:42:49;184.60;;;48.20;;
69026;SDS011;56080;47.594;19.116;2022-11-06T08:57:49;187.10;;;46.50;;
69026;SDS011;56080;47.594;19.116;2022-11-06T09:12:49;186.40;;;47.60;;
69026;SDS011;56080;47.594;19.116;2022-11-06T09:17:53;183.90;;;47.00;;
69026;SDS011;56080;47.594;19.116;2022-11-06T09:22:49;183.90;;;47.00;;
69026;SDS011;56080;47.594;19.116;2022-11-06T09:27:53;182.20;;;45.90;;
69026;SDS011;56080;47.594;19.116;2022-11-06T09:32:55;182.20;;;45.90;;
69026;SDS011;56080;47.594;19.116;2022-11-06T09:37:49;185.00;;;48.10;;
69026;SDS011;56080;47.594;19.116;2022-11-06T09:53:00;183.40;;;45.80;;
69026;SDS011;56080;47.594;19.116;2022-11-06T09:57:58;173.50;;;46.10;;
69026;SDS011;56080;47.594;19.116;2022-11-06T10:02:54;173.50;;;46.10;;
69026;SDS011;56080;47.594;19.116;2022-11-06T10:07:51;165.00;;;47.30;;
69026;SDS011;56080;47.594;19.116;2022-11-06T10:13:03;165.00;;;47.30;;
69026;SDS011;56080;47.594;19.116;2022-11-06T10:42:54;158.10;;;44.50;;
69026;SDS011;56080;47.594;19.116;2022-11-06T10:47:58;163.90;;;46.90;;
69026;SDS011;56080;47.594;19.116;2022-11-06T10:52:50;163.90;;;46.90;;
69026;SDS011;56080;47.594;19.116;2022-11-06T10:57:58;162.20;;;46.30;;
69026;SDS011;56080;47.594;19.116;2022-11-06T11:02:56;162.20;;;46.30;;
69026;SDS011;56080;47.594;19.116;2022-11-06T11:07:51;166.50;;;48.60;;
69026;SDS011;56080;47.594;19.116;2022-11-06T11:12:55;166.50;;;48.60;;
69026;SDS011;56080;47.594;19.116;2022-11-06T11:23:03;159.90;;;45.90;;
69026;SDS011;56080;47.594;19.116;2022-11-06T11:27:53;164.80;;;46.40;;
69026;SDS011;56080;47.594;19.116;2022-11-06T11:32:49;164.80;;;46.40;;
69026;SDS011;56080;47.594;19.116;2022-11-06T11:37:49;167.20;;;45.70;;
69026;SDS011;56080;47.594;19.116;2022-11-06T11:42:49;167.20;;;45.70;;
69026;SDS011;56080;47.594;19.116;2022-11-06T11:47:50;170.10;;;50.20;;
69026;SDS011;56080;47.594;19.116;2022-11-06T11:52:56;170.10;;;50.20;;
69026;SDS011;56080;47.594;19.116;2022-11-06T11:57:53;174.00;;;45.80;;
69026;SDS011;56080;47.594;19.116;2022-11-06T12:02:55;174.00;;;45.80;;
69026;SDS011;56080;47.594;19.116;2022-11-06T12:07:57;165.90;;;46.40;;
69026;SDS011;56080;47.594;19.116;2022-11-06T12:12:57;165.90;;;46.40;;
69026;SDS011;56080;47.594;19.116;2022-11-06T12:17:51;164.50;;;45.20;;
69026;SDS011;56080;47.594;19.116;2022-11-06T12:22:53;164.50;;;45.20;;
69026;SDS011;56080;47.594;19.116;2022-11-06T12:27:54;164.50;;;46.20;;
69026;SDS011;56080;47.594;19.116;2022-11-06T12:32:58;164.50;;;46.20;;
69026;SDS011;56080;47.594;19.116;2022-11-06T12:53:10;158.40;;;45.60;;
69026;SDS011;56080;47.594;19.116;2022-11-06T13:08:09;155.70;;;46.30;;
69026;SDS011;56080;47.594;19.116;2022-11-06T13:13:01;155.70;;;46.30;;
69026;SDS011;56080;47.594;19.116;2022-11-06T13:22:58;157.30;;;45.60;;
69026;SDS011;56080;47.594;19.116;2022-11-06T13:33:01;167.30;;;46.80;;
69026;SDS011;56080;47.594;19.116;2022-11-06T13:37:51;171.80;;;46.20;;
69026;SDS011;56080;47.594;19.116;2022-11-06T13:47:59;162.80;;;45.60;;
69026;SDS011;56080;47.594;19.116;2022-11-06T13:53:00;162.80;;;45.60;;
69026;SDS011;56080;47.594;19.116;2022-11-06T13:58:05;155.60;;;44.90;;
69026;SDS011;56080;47.594;19.116;2022-11-06T14:07:50;159.10;;;46.80;;
69026;SDS011;56080;47.594;19.116;2022-11-06T14:22:49;157.70;;;45.50;;
69026;SDS011;56080;47.594;19.116;2022-11-06T14:32:52;153.30;;;43.80;;
69026;SDS011;56080;47.594;19.116;2022-11-06T14:42:51;151.70;;;43.10;;
69026;SDS011;56080;47.594;19.116;2022-11-06T14:47:57;151.10;;;43.50;;
69026;SDS011;56080;47.594;19.116;2022-11-06T14:57:53;151.10;;;43.10;;
69026;SDS011;56080;47.594;19.116;2022-11-06T15:07:59;149.00;;;43.20;;
69026;SDS011;56080;47.594;19.116;2022-11-06T15:17:50;150.10;;;42.90;;
69026;SDS011;56080;47.594;19.116;2022-11-06T15:23:00;150.10;;;42.90;;
69026;SDS011;56080;47.594;19.116;2022-11-06T15:28:05;152.80;;;44.20;;
69026;SDS011;56080;47.594;19.116;2022-11-06T15:48:30;460.70;;;153.10;;
69026;SDS011;56080;47.594;19.116;2022-11-06T15:53:29;460.70;;;153.10;;
69026;SDS011;56080;47.594;19.116;2022-11-06T15:58:28;221.60;;;44.90;;
69026;SDS011;56080;47.594;19.116;2022-11-06T16:03:27;221.60;;;44.90;;
69026;SDS011;56080;47.594;19.116;2022-11-06T16:08:27;220.50;;;47.80;;
69026;SDS011;56080;47.594;19.116;2022-11-06T16:13:27;220.50;;;47.80;;
69026;SDS011;56080;47.594;19.116;2022-11-06T16:18:43;202.10;;;47.60;;
69026;SDS011;56080;47.594;19.116;2022-11-06T16:23:30;202.10;;;47.60;;
69026;SDS011;56080;47.594;19.116;2022-11-06T16:28:29;197.40;;;45.80;;
69026;SDS011;56080;47.594;19.116;2022-11-06T16:33:29;197.40;;;45.80;;
69026;SDS011;56080;47.594;19.116;2022-11-06T16:43:28;263.20;;;58.60;;
69026;SDS011;56080;47.594;19.116;2022-11-06T16:48:26;222.40;;;52.00;;
69026;SDS011;56080;47.594;19.116;2022-11-06T16:53:29;222.40;;;52.00;;
69026;SDS011;56080;47.594;19.116;2022-11-06T16:58:25;191.20;;;48.00;;
69026;SDS011;56080;47.594;19.116;2022-11-06T17:03:36;191.20;;;48.00;;
69026;SDS011;56080;47.594;19.116;2022-11-06T17:08:31;186.70;;;45.80;;
69026;SDS011;56080;47.594;19.116;2022-11-06T17:13:29;186.70;;;45.80;;
69026;SDS011;56080;47.594;19.116;2022-11-06T17:18:27;184.10;;;46.60;;
69026;SDS011;56080;47.594;19.116;2022-11-06T17:23:27;184.10;;;46.60;;
69026;SDS011;56080;47.594;19.116;2022-11-06T17:28:24;178.70;;;45.90;;
69026;SDS011;56080;47.594;19.116;2022-11-06T17:38:25;181.60;;;46.10;;
69026;SDS011;56080;47.594;19.116;2022-11-06T17:43:25;181.60;;;46.10;;
69026;SDS011;56080;47.594;19.116;2022-11-06T17:48:25;183.10;;;46.40;;
69026;SDS011;56080;47.594;19.116;2022-11-06T17:53:25;183.10;;;46.40;;
69026;SDS011;56080;47.594;19.116;2022-11-06T17:58:25;181.10;;;45.10;;
69026;SDS011;56080;47.594;19.116;2022-11-06T18:03:27;181.10;;;45.10;;
69026;SDS011;56080;47.594;19.116;2022-11-06T18:08:25;228.70;;;56.80;;
69026;SDS011;56080;47.594;19.116;2022-11-06T18:13:24;228.70;;;56.80;;
69026;SDS011;56080;47.594;19.116;2022-11-06T18:23:25;177.50;;;45.30;;
69026;SDS011;56080;47.594;19.116;2022-11-06T18:33:26;176.20;;;45.10;;
69026;SDS011;56080;47.594;19.116;2022-11-06T18:38:25;173.50;;;46.00;;
69026;SDS011;56080;47.594;19.116;2022-11-06T18:43:24;173.50;;;46.00;;
69026;SDS011;56080;47.594;19.116;2022-11-06T18:48:31;234.10;;;53.70;;
69026;SDS011;56080;47.594;19.116;2022-11-06T18:53:25;234.10;;;53.70;;
69026;SDS011;56080;47.594;19.116;2022-11-06T18:58:25;182.90;;;44.20;;
69026;SDS011;56080;47.594;19.116;2022-11-06T19:03:26;182.90;;;44.20;;
69026;SDS011;56080;47.594;19.116;2022-11-06T19:08:27;186.60;;;47.50;;
69026;SDS011;56080;47.594;19.116;2022-11-06T19:13:26;186.60;;;47.50;;
69026;SDS011;56080;47.594;19.116;2022-11-06T19:18:28;181.50;;;45.30;;
69026;SDS011;56080;47.594;19.116;2022-11-06T19:23:25;181.50;;;45.30;;
69026;SDS011;56080;47.594;19.116;2022-11-06T19:28:25;174.70;;;46.60;;
69026;SDS011;56080;47.594;19.116;2022-11-06T19:33:24;174.70;;;46.60;;
69026;SDS011;56080;47.594;19.116;2022-11-06T19:38:25;180.00;;;46.70;;
69026;SDS011;56080;47.594;19.116;2022-11-06T19:43:25;180.00;;;46.70;;
69026;SDS011;56080;47.594;19.116;2022-11-06T19:53:27;178.50;;;47.10;;
69026;SDS011;56080;47.594;19.116;2022-11-06T19:58:25;180.90;;;48.10;;
69026;SDS011;56080;47.594;19.116;2022-11-06T20:03:26;180.90;;;48.10;;
69026;SDS011;56080;47.594;19.116;2022-11-06T20:08:25;181.40;;;47.30;;
69026;SDS011;56080;47.594;19.116;2022-11-06T20:13:25;181.40;;;47.30;;
69026;SDS011;56080;47.594;19.116;2022-11-06T20:18:26;181.30;;;47.70;;
69026;SDS011;56080;47.594;19.116;2022-11-06T20:23:25;181.30;;;47.70;;
69026;SDS011;56080;47.594;19.116;2022-11-06T20:28:24;183.60;;;46.60;;
69026;SDS011;56080;47.594;19.116;2022-11-06T20:33:25;183.60;;;46.60;;
69026;SDS011;56080;47.594;19.116;2022-11-06T20:38:25;173.00;;;47.60;;
69026;SDS011;56080;47.594;19.116;2022-11-06T20:43:26;173.00;;;47.60;;
69026;SDS011;56080;47.594;19.116;2022-11-06T20:53:25;158.40;;;46.90;;
69026;SDS011;56080;47.594;19.116;2022-11-06T20:58:25;159.20;;;47.30;;
69026;SDS011;56080;47.594;19.116;2022-11-06T21:03:25;159.20;;;47.30;;
69026;SDS011;56080;47.594;19.116;2022-11-06T21:08:24;162.40;;;47.30;;
69026;SDS011;56080;47.594;19.116;2022-11-06T21:13:25;162.40;;;47.30;;
69026;SDS011;56080;47.594;19.116;2022-11-06T21:18:24;165.40;;;48.00;;
69026;SDS011;56080;47.594;19.116;2022-11-06T21:23:24;165.40;;;48.00;;
69026;SDS011;56080;47.594;19.116;2022-11-06T21:28:24;162.60;;;47.40;;
69026;SDS011;56080;47.594;19.116;2022-11-06T21:33:24;162.60;;;47.40;;
69026;SDS011;56080;47.594;19.116;2022-11-06T21:38:24;161.80;;;47.70;;
69026;SDS011;56080;47.594;19.116;2022-11-06T21:43:26;161.80;;;47.70;;
69026;SDS011;56080;47.594;19.116;2022-11-06T21:48:34;155.50;;;47.10;;
69026;SDS011;56080;47.594;19.116;2022-11-06T21:53:35;155.50;;;47.10;;
69026;SDS011;56080;47.594;19.116;2022-11-06T21:58:25;154.10;;;46.30;;
69026;SDS011;56080;47.594;19.116;2022-11-06T22:03:25;154.10;;;46.30;;
69026;SDS011;56080;47.594;19.116;2022-11-06T22:08:25;155.60;;;48.10;;
69026;SDS011;56080;47.594;19.116;2022-11-06T22:13:24;155.60;;;48.10;;
69026;SDS011;56080;47.594;19.116;2022-11-06T22:18:24;156.50;;;47.60;;
69026;SDS011;56080;47.594;19.116;2022-11-06T22:23:24;156.50;;;47.60;;
69026;SDS011;56080;47.594;19.116;2022-11-06T22:28:24;153.50;;;45.90;;
69026;SDS011;56080;47.594;19.116;2022-11-06T22:33:24;153.50;;;45.90;;
69026;SDS011;56080;47.594;19.116;2022-11-06T22:38:25;150.10;;;46.00;;
69026;SDS011;56080;47.594;19.116;2022-11-06T22:43:25;150.10;;;46.00;;
69026;SDS011;56080;47.594;19.116;2022-11-06T22:48:24;149.10;;;45.30;;
69026;SDS011;56080;47.594;19.116;2022-11-06T22:53:25;149.10;;;45.30;;
69026;SDS011;56080;47.594;19.116;2022-11-06T22:58:24;148.90;;;45.00;;
69026;SDS011;56080;47.594;19.116;2022-11-06T23:03:26;148.90;;;45.00;;
69026;SDS011;56080;47.594;19.116;2022-11-06T23:08:25;150.30;;;44.80;;
69026;SDS011;56080;47.594;19.116;2022-11-06T23:13:25;150.30;;;44.80;;
69026;SDS011;56080;47.594;19.116;2022-11-06T23:23:25;150.70;;;44.00;;
69026;SDS011;56080;47.594;19.116;2022-11-06T23:28:24;145.70;;;44.00;;
69026;SDS011;56080;47.594;19.116;2022-11-06T23:33:25;145.70;;;44.00;;
69026;SDS011;56080;47.594;19.116;2022-11-06T23:38:24;139.60;;;42.50;;
69026;SDS011;56080;47.594;19.116;2022-11-06T23:43:25;139.60;;;42.50;;
69026;SDS011;56080;47.594;19.116;2022-11-06T23:48:25;140.40;;;42.70;;
69026;SDS011;56080;47.594;19.116;2022-11-06T23:53:25;140.40;;;42.70;;
69026;SDS011;56080;47.594;19.116;2022-11-06T23:58:24;139.90;;;41.60;;
